createdAt,value
2022-08-07T04:00:30.569Z,51.45
2022-08-07T04:01:29.897Z,51.35
2022-08-07T04:02:29.848Z,50.95
2022-08-07T04:03:29.845Z,51.45
2022-08-07T04:04:32.648Z,52.06
2022-08-07T04:05:41.160Z,51.56
2022-08-07T04:06:37.442Z,51.38
2022-08-07T04:07:36.153Z,52.79
2022-08-07T04:08:30.826Z,51.98
2022-08-07T04:09:45.471Z,52.39
2022-08-07T04:10:30.754Z,52.19
2022-08-07T04:12:23.367Z,52.69
2022-08-07T04:12:30.747Z,52.89
2022-08-07T04:13:29.722Z,52.49
2022-08-07T04:14:38.018Z,52.89
2022-08-07T04:15:30.696Z,52.09
2022-08-07T04:16:31.007Z,51.58
2022-08-07T04:17:31.061Z,52.92
2022-08-07T04:18:59.410Z,52.69
2022-08-07T04:19:51.022Z,52.69
2022-08-07T04:20:30.818Z,51.98
2022-08-07T04:21:31.811Z,52.82
2022-08-07T04:22:34.652Z,53.02
2022-08-07T04:23:43.653Z,52.69
2022-08-07T04:24:34.016Z,52.31
2022-08-07T04:25:29.653Z,52.72
2022-08-07T04:26:29.575Z,53.02
2022-08-07T04:27:35.460Z,52.82
2022-08-07T04:28:30.552Z,52.72
2022-08-07T04:29:30.433Z,53.12
2022-08-07T04:30:39.214Z,53.02
2022-08-07T04:31:39.236Z,52.72
2022-08-07T04:32:34.239Z,52.31
2022-08-07T04:33:35.277Z,52.92
2022-08-07T04:34:33.123Z,52.94
2022-08-07T04:35:35.167Z,52.84
2022-08-07T04:36:30.470Z,52.61
2022-08-07T04:37:29.460Z,52.94
2022-08-07T04:38:30.452Z,52.92
2022-08-07T04:39:35.964Z,52.51
2022-08-07T04:40:31.419Z,52.82
2022-08-07T04:41:29.480Z,52.09
2022-08-07T04:42:30.413Z,51.28
2022-08-07T04:44:12.390Z,51.07
2022-08-07T04:44:35.393Z,51.76
2022-08-07T04:45:57.279Z,51.18
2022-08-07T04:46:34.747Z,51.35
2022-08-07T04:48:01.632Z,51.15
2022-08-07T04:48:30.633Z,50.45
2022-08-07T04:49:29.566Z,51.05
2022-08-07T04:50:30.305Z,50.55
2022-08-07T04:51:29.293Z,50.95
2022-08-07T04:52:29.521Z,51.45
2022-08-07T04:54:01.311Z,50.95
2022-08-07T04:54:30.530Z,50.95
2022-08-07T04:58:13.692Z,51.58
2022-08-07T04:58:15.262Z,51.25
2022-08-07T04:58:16.148Z,51.45
2022-08-07T04:58:49.821Z,51.15
2022-08-07T05:00:14.620Z,50.04
2022-08-07T05:00:32.253Z,50.73
2022-08-07T05:01:30.254Z,50.45
2022-08-07T05:02:29.178Z,50.75
2022-08-07T05:04:07.352Z,51.25
2022-08-07T05:04:30.146Z,50.95
2022-08-07T05:05:53.497Z,50.78
2022-08-07T05:06:43.728Z,51.45
2022-08-07T05:07:36.617Z,50.45
2022-08-07T05:09:00.072Z,51.45
2022-08-07T05:09:46.084Z,50.85
2022-08-07T05:10:30.080Z,50.75
2022-08-07T05:11:58.094Z,51.25
2022-08-07T05:12:30.377Z,51.25
2022-08-07T05:14:51.993Z,50.95
2022-08-07T05:14:55.283Z,51.15
2022-08-07T05:15:30.019Z,51.05
2022-08-07T05:16:29.005Z,50.85
2022-08-07T05:17:51.774Z,50.95
2022-08-07T05:18:29.982Z,50.75
2022-08-07T05:19:32.612Z,50.65
2022-08-07T05:20:28.960Z,50.55
2022-08-07T05:22:00.022Z,50.52
2022-08-07T05:22:29.971Z,50.73
2022-08-07T05:23:30.184Z,50.02
2022-08-07T05:24:30.625Z,50.52
2022-08-07T05:25:36.612Z,50.32
2022-08-07T05:26:29.896Z,50.12
2022-08-07T05:28:02.726Z,49.82
2022-08-07T05:28:34.920Z,50.32
2022-08-07T05:29:39.118Z,50.22
2022-08-07T05:30:32.796Z,50.22
2022-08-07T05:31:34.549Z,49.92
2022-08-07T05:32:29.830Z,50.22
2022-08-07T05:33:28.827Z,50.32
2022-08-07T05:34:28.805Z,50.62
2022-08-07T05:35:33.518Z,50.32
2022-08-07T05:36:32.137Z,50.62
2022-08-07T05:37:30.028Z,50.10
2022-08-07T05:39:00.442Z,49.57
2022-08-07T05:40:16.723Z,49.37
2022-08-07T05:40:29.846Z,48.84
2022-08-07T05:42:02.786Z,48.64
2022-08-07T05:42:33.736Z,49.15
2022-08-07T05:43:49.569Z,48.94
2022-08-07T05:44:29.865Z,48.64
2022-08-07T05:45:47.588Z,48.64
2022-08-07T05:46:29.685Z,48.34
2022-08-07T05:47:28.656Z,49.04
2022-08-07T05:48:29.727Z,48.64
2022-08-07T05:49:37.151Z,48.94
2022-08-07T05:50:34.655Z,48.26
2022-08-07T05:51:31.443Z,48.66
2022-08-07T05:52:32.482Z,49.16
2022-08-07T05:54:12.342Z,49.04
2022-08-07T05:54:44.198Z,49.04
2022-08-07T05:56:02.852Z,48.66
2022-08-07T05:56:30.250Z,48.54
2022-08-07T05:57:30.165Z,49.15
2022-08-07T05:58:36.016Z,48.54
2022-08-07T05:59:29.569Z,49.24
2022-08-07T06:00:29.535Z,48.44
2022-08-07T06:01:34.883Z,49.04
2022-08-07T06:02:29.628Z,49.02
2022-08-07T06:03:47.021Z,47.81
2022-08-07T06:04:30.225Z,47.91
2022-08-07T06:05:28.707Z,48.11
2022-08-07T06:06:29.931Z,47.81
2022-08-07T06:08:29.290Z,48.11
2022-08-07T06:08:31.526Z,47.28
2022-08-07T06:09:45.288Z,47.39
2022-08-07T06:10:29.392Z,47.79
2022-08-07T06:11:28.415Z,47.39
2022-08-07T06:12:33.407Z,46.98
2022-08-07T06:14:10.321Z,47.08
2022-08-07T06:14:30.280Z,47.19
2022-08-07T06:15:41.896Z,47.46
2022-08-07T06:16:29.407Z,47.26
2022-08-07T06:17:30.582Z,46.54
2022-08-07T06:18:29.304Z,45.71
2022-08-07T06:19:51.952Z,46.31
2022-08-07T06:20:49.427Z,46.11
2022-08-07T06:22:15.281Z,46.81
2022-08-07T06:22:29.254Z,46.14
2022-08-07T06:24:38.744Z,46.23
2022-08-07T06:24:45.614Z,46.44
2022-08-07T06:25:34.849Z,46.64
2022-08-07T06:26:29.210Z,46.56
2022-08-07T06:28:00.623Z,46.73
2022-08-07T06:28:29.191Z,46.54
2022-08-07T06:29:28.188Z,46.46
2022-08-07T06:30:35.431Z,46.96
2022-08-07T06:31:47.100Z,47.46
2022-08-07T06:32:29.417Z,47.26
2022-08-07T06:33:29.741Z,46.94
2022-08-07T06:34:33.374Z,46.11
2022-08-07T06:35:30.521Z,46.41
2022-08-07T06:36:35.366Z,46.31
2022-08-07T06:37:43.485Z,46.61
2022-08-07T06:38:29.079Z,46.51
2022-08-07T06:40:18.023Z,45.69
2022-08-07T06:40:34.303Z,45.99
2022-08-07T06:41:47.557Z,45.87
2022-08-07T06:42:32.931Z,46.19
2022-08-07T06:43:32.387Z,45.87
2022-08-07T06:44:33.860Z,45.37
2022-08-07T06:45:34.197Z,45.49
2022-08-07T06:46:35.112Z,45.39
2022-08-07T06:47:29.140Z,45.97
2022-08-07T06:48:28.976Z,45.67
2022-08-07T06:49:28.051Z,45.75
2022-08-07T06:50:27.945Z,44.84
2022-08-07T06:51:33.140Z,44.95
2022-08-07T06:52:31.957Z,45.45
2022-08-07T06:55:29.297Z,44.74
2022-08-07T06:55:32.814Z,43.80
2022-08-07T06:55:53.489Z,43.40
2022-08-07T06:56:33.897Z,43.50
2022-08-07T06:57:39.237Z,44.40
2022-08-07T06:58:28.971Z,44.42
2022-08-07T07:00:12.087Z,44.42
2022-08-07T07:00:28.824Z,44.72
2022-08-07T07:01:33.227Z,43.82
2022-08-07T07:02:53.657Z,44.22
2022-08-07T07:03:49.071Z,43.82
2022-08-07T07:04:33.326Z,44.32
2022-08-07T07:06:03.685Z,44.02
2022-08-07T07:06:28.791Z,43.82
2022-08-07T07:07:59.623Z,43.82
2022-08-07T07:08:28.960Z,44.42
2022-08-07T07:09:31.291Z,44.52
2022-08-07T07:10:27.724Z,44.42
2022-08-07T07:12:07.575Z,44.62
2022-08-07T07:12:31.501Z,44.42
2022-08-07T07:13:55.606Z,44.12
2022-08-07T07:14:28.666Z,44.32
2022-08-07T07:15:32.470Z,44.50
2022-08-07T07:16:30.538Z,44.50
2022-08-07T07:17:38.625Z,43.80
2022-08-07T07:18:47.873Z,43.90
2022-08-07T07:19:56.441Z,44.90
2022-08-07T07:20:28.609Z,45.12
2022-08-07T07:21:40.554Z,44.50
2022-08-07T07:22:36.879Z,45.50
2022-08-07T07:24:11.189Z,44.70
2022-08-07T07:24:28.553Z,45.42
2022-08-07T07:26:34.280Z,44.92
2022-08-07T07:26:34.280Z,44.72
2022-08-07T07:27:35.647Z,44.90
2022-08-07T07:28:29.621Z,45.40
2022-08-07T07:29:39.660Z,44.90
2022-08-07T07:30:37.958Z,44.80
2022-08-07T07:31:30.506Z,45.48
2022-08-07T07:32:28.468Z,44.48
2022-08-07T07:33:27.454Z,44.48
2022-08-07T07:34:31.018Z,44.56
2022-08-07T07:35:27.439Z,43.88
2022-08-07T07:36:32.430Z,44.48
2022-08-07T07:37:47.323Z,44.78
2022-08-07T07:38:28.477Z,44.58
2022-08-07T07:39:45.396Z,44.66
2022-08-07T07:40:33.397Z,44.48
2022-08-07T07:41:50.383Z,45.26
2022-08-07T07:42:33.165Z,44.08
2022-08-07T07:43:48.074Z,43.66
2022-08-07T07:44:28.339Z,43.96
2022-08-07T07:46:36.868Z,44.04
2022-08-07T07:46:40.152Z,44.56
2022-08-07T07:47:28.299Z,44.13
2022-08-07T07:48:35.872Z,44.24
2022-08-07T07:50:31.400Z,44.13
2022-08-07T07:50:35.521Z,43.32
2022-08-07T07:51:33.276Z,43.63
2022-08-07T07:52:28.566Z,43.93
2022-08-07T07:53:27.239Z,43.74
2022-08-07T07:54:27.226Z,43.51
2022-08-07T07:55:27.207Z,43.51
2022-08-07T07:56:30.617Z,43.51
2022-08-07T07:57:51.882Z,43.32
2022-08-07T07:58:28.170Z,42.99
2022-08-07T07:59:51.447Z,43.09
2022-08-07T08:00:31.279Z,42.68
2022-08-07T08:02:01.571Z,43.37
2022-08-07T08:02:34.024Z,43.07
2022-08-07T08:04:09.366Z,42.97
2022-08-07T08:04:28.150Z,42.77
2022-08-07T08:05:30.226Z,43.07
2022-08-07T08:06:28.080Z,42.87
2022-08-07T08:07:35.773Z,43.27
2022-08-07T08:08:35.777Z,43.07
2022-08-07T08:09:29.625Z,43.15
2022-08-07T08:10:38.207Z,43.45
2022-08-07T08:11:59.921Z,42.05
2022-08-07T08:12:51.962Z,42.95
2022-08-07T08:13:36.657Z,43.25
2022-08-07T08:14:27.989Z,42.95
2022-08-07T08:15:26.995Z,42.85
2022-08-07T08:16:29.914Z,43.45
2022-08-07T08:17:57.423Z,43.05
2022-08-07T08:18:27.945Z,43.18
2022-08-07T08:20:17.446Z,43.07
2022-08-07T08:20:31.967Z,42.95
2022-08-07T08:22:00.702Z,43.67
2022-08-07T08:22:28.376Z,43.65
2022-08-07T08:23:28.156Z,42.85
2022-08-07T08:24:36.125Z,42.65
2022-08-07T08:25:42.924Z,43.05
2022-08-07T08:26:27.852Z,43.65
2022-08-07T08:27:28.703Z,42.57
2022-08-07T08:28:38.774Z,43.35
2022-08-07T08:29:27.822Z,43.53
2022-08-07T08:30:26.884Z,42.83
2022-08-07T08:31:58.685Z,41.61
2022-08-07T08:32:38.691Z,41.91
2022-08-07T08:33:28.737Z,42.02
2022-08-07T08:34:29.203Z,41.82
2022-08-07T08:35:42.919Z,43.11
2022-08-07T08:36:29.798Z,42.02
2022-08-07T08:38:01.657Z,42.41
2022-08-07T08:38:29.255Z,42.51
2022-08-07T08:39:39.514Z,42.71
2022-08-07T08:40:28.363Z,43.09
2022-08-07T08:41:56.911Z,42.51
2022-08-07T08:42:27.675Z,42.49
2022-08-07T08:43:32.101Z,42.69
2022-08-07T08:44:29.349Z,41.89
2022-08-07T08:45:41.872Z,41.60
2022-08-07T08:46:32.651Z,42.69
2022-08-07T08:47:26.621Z,41.58
2022-08-07T08:48:28.549Z,42.07
2022-08-07T08:49:32.740Z,41.77
2022-08-07T08:50:34.760Z,41.75
2022-08-07T08:51:49.797Z,41.77
2022-08-07T08:52:30.327Z,42.18
2022-08-07T08:53:29.499Z,41.97
2022-08-07T08:54:26.542Z,41.67
2022-08-07T08:55:54.868Z,41.77
2022-08-07T08:56:27.519Z,42.87
2022-08-07T08:57:34.192Z,42.18
2022-08-07T08:58:28.981Z,41.47
2022-08-07T08:59:26.487Z,41.75
2022-08-07T09:00:28.669Z,41.25
2022-08-07T09:01:29.983Z,41.14
2022-08-07T09:02:36.446Z,40.94
2022-08-07T09:03:49.398Z,41.96
2022-08-07T09:04:28.864Z,42.15
2022-08-07T09:05:37.394Z,42.15
2022-08-07T09:06:27.411Z,41.75
2022-08-07T09:07:26.399Z,41.66
2022-08-07T09:08:31.415Z,42.43
2022-08-07T09:09:33.265Z,41.96
2022-08-07T09:10:27.379Z,41.63
2022-08-07T09:11:50.603Z,41.93
2022-08-07T09:12:30.925Z,41.74
2022-08-07T09:13:36.751Z,41.71
2022-08-07T09:14:29.574Z,41.61
2022-08-07T09:16:23.468Z,41.53
2022-08-07T09:16:30.144Z,41.52
2022-08-07T09:17:26.550Z,41.42
2022-08-07T09:18:27.926Z,41.31
2022-08-07T09:19:51.716Z,41.22
2022-08-07T09:20:35.913Z,41.31
2022-08-07T09:21:34.098Z,41.22
2022-08-07T09:24:28.224Z,41.61
2022-08-07T09:24:32.668Z,41.52
2022-08-07T09:24:32.765Z,41.22
2022-08-07T09:25:27.193Z,41.09
2022-08-07T09:26:26.180Z,41.30
2022-08-07T09:27:27.390Z,41.20
2022-08-07T09:30:04.534Z,41.47
2022-08-07T09:30:05.007Z,41.20
2022-08-07T09:30:32.163Z,40.88
2022-08-07T09:31:26.128Z,41.28
2022-08-07T09:32:27.114Z,40.18
2022-08-07T09:33:52.552Z,40.68
2022-08-07T09:34:27.197Z,40.16
2022-08-07T09:36:01.338Z,40.46
2022-08-07T09:36:28.579Z,40.34
2022-08-07T09:37:33.533Z,39.65
2022-08-07T09:38:27.072Z,40.44
2022-08-07T09:39:53.705Z,39.75
2022-08-07T09:40:27.197Z,39.54
2022-08-07T09:41:36.419Z,39.75
2022-08-07T09:42:32.931Z,40.64
2022-08-07T09:43:40.043Z,39.54
2022-08-07T09:44:36.181Z,40.14
2022-08-07T09:47:23.619Z,39.92
2022-08-07T09:47:49.986Z,40.92
2022-08-07T09:47:58.160Z,39.73
2022-08-07T09:48:30.001Z,39.92
2022-08-07T09:50:00.530Z,39.73
2022-08-07T09:50:26.939Z,39.92
2022-08-07T09:52:16.758Z,40.24
2022-08-07T09:52:34.866Z,40.03
2022-08-07T09:53:25.882Z,40.24
2022-08-07T09:54:27.267Z,39.95
2022-08-07T09:55:29.475Z,39.73
2022-08-07T09:56:37.634Z,41.04
2022-08-07T09:57:27.983Z,40.44
2022-08-07T09:58:32.175Z,40.44
2022-08-07T09:59:35.835Z,40.44
2022-08-07T10:00:29.813Z,40.64
2022-08-07T10:01:51.391Z,40.14
2022-08-07T10:02:29.579Z,40.84
2022-08-07T10:04:03.097Z,39.75
2022-08-07T10:04:28.400Z,40.14
2022-08-07T10:05:59.034Z,40.84
2022-08-07T10:06:27.370Z,40.42
2022-08-07T10:07:31.476Z,39.73
2022-08-07T10:08:26.715Z,39.73
2022-08-07T10:09:43.011Z,40.52
2022-08-07T10:10:28.181Z,40.80
2022-08-07T10:12:01.459Z,40.20
2022-08-07T10:12:26.666Z,39.81
2022-08-07T10:13:54.908Z,40.11
2022-08-07T10:14:31.678Z,39.90
2022-08-07T10:15:25.644Z,39.61
2022-08-07T10:16:25.623Z,39.81
2022-08-07T10:17:25.611Z,40.20
2022-08-07T10:18:26.316Z,40.01
2022-08-07T10:19:25.588Z,39.63
2022-08-07T10:20:30.561Z,39.43
2022-08-07T10:21:50.668Z,40.05
2022-08-07T10:22:33.870Z,40.54
2022-08-07T10:24:05.880Z,40.64
2022-08-07T10:24:26.533Z,40.82
2022-08-07T10:25:42.062Z,40.82
2022-08-07T10:26:26.510Z,40.52
2022-08-07T10:27:25.511Z,40.72
2022-08-07T10:28:25.504Z,40.42
2022-08-07T10:29:25.479Z,40.12
2022-08-07T10:30:26.598Z,40.42
2022-08-07T10:31:25.454Z,40.03
2022-08-07T10:32:51.043Z,40.03
2022-08-07T10:34:05.866Z,39.63
2022-08-07T10:34:27.260Z,39.73
2022-08-07T10:35:26.422Z,39.53
2022-08-07T10:36:36.275Z,39.92
2022-08-07T10:38:00.684Z,39.71
2022-08-07T10:38:35.955Z,40.80
2022-08-07T10:39:41.305Z,40.01
2022-08-07T10:40:30.390Z,40.01
2022-08-07T10:41:52.192Z,40.41
2022-08-07T10:42:31.114Z,39.90
2022-08-07T10:43:34.236Z,39.61
2022-08-07T10:44:28.790Z,38.79
2022-08-07T10:45:29.362Z,39.00
2022-08-07T10:46:26.287Z,39.00
2022-08-07T10:47:51.408Z,39.19
2022-08-07T10:48:34.554Z,39.19
2022-08-07T10:49:49.815Z,38.58
2022-08-07T10:50:26.610Z,38.48
2022-08-07T10:51:39.712Z,38.79
2022-08-07T10:52:33.553Z,38.58
2022-08-07T10:53:26.211Z,37.98
2022-08-07T10:54:25.199Z,38.36
2022-08-07T10:55:36.885Z,37.77
2022-08-07T10:56:31.626Z,37.77
2022-08-07T10:57:34.473Z,36.58
2022-08-07T10:58:33.130Z,37.17
2022-08-07T10:59:30.470Z,37.17
2022-08-07T11:00:36.523Z,37.87
2022-08-07T11:01:35.335Z,36.68
2022-08-07T11:02:33.645Z,36.98
2022-08-07T11:03:28.077Z,35.88
2022-08-07T11:04:32.148Z,36.28
2022-08-07T11:05:35.667Z,35.19
2022-08-07T11:06:26.760Z,34.99
2022-08-07T11:08:00.450Z,35.97
2022-08-07T11:08:29.127Z,35.47
2022-08-07T11:10:08.893Z,35.47
2022-08-07T11:10:27.546Z,35.25
2022-08-07T11:11:25.012Z,34.06
2022-08-07T11:12:31.624Z,34.36
2022-08-07T11:14:44.285Z,33.67
2022-08-07T11:14:44.865Z,34.36
2022-08-07T11:15:26.271Z,34.05
2022-08-07T11:16:30.464Z,33.47
2022-08-07T11:17:43.304Z,32.58
2022-08-07T11:18:25.933Z,33.17
2022-08-07T11:19:27.221Z,32.27
2022-08-07T11:20:29.985Z,32.37
2022-08-07T11:21:24.906Z,32.95
2022-08-07T11:22:33.323Z,32.93
2022-08-07T11:23:30.430Z,31.94
2022-08-07T11:24:25.869Z,31.33
2022-08-07T11:25:24.869Z,30.94
2022-08-07T11:26:24.846Z,31.04
2022-08-07T11:28:00.773Z,31.41
2022-08-07T11:28:25.826Z,31.70
2022-08-07T11:29:43.539Z,30.63
2022-08-07T11:30:39.131Z,30.32
2022-08-07T11:31:33.304Z,30.21
2022-08-07T11:32:25.649Z,29.80
2022-08-07T11:33:54.289Z,28.62
2022-08-07T11:34:25.758Z,29.02
2022-08-07T11:35:26.800Z,28.92
2022-08-07T11:36:25.438Z,29.30
2022-08-07T11:37:25.728Z,28.82
2022-08-07T11:38:28.129Z,29.52
2022-08-07T11:39:24.778Z,30.44
2022-08-07T11:40:24.745Z,30.24
2022-08-07T11:42:00.287Z,30.76
2022-08-07T11:42:30.692Z,31.05
2022-08-07T11:43:41.535Z,30.36
2022-08-07T11:44:25.672Z,30.36
2022-08-07T11:45:34.692Z,30.37
2022-08-07T11:46:25.627Z,30.65
2022-08-07T11:47:26.117Z,30.76
2022-08-07T11:48:29.677Z,30.76
2022-08-07T11:49:27.579Z,30.77
2022-08-07T11:50:32.355Z,30.27
2022-08-07T11:51:41.415Z,30.47
2022-08-07T11:52:29.396Z,30.68
2022-08-07T11:53:25.549Z,30.57
2022-08-07T11:54:25.415Z,30.76
2022-08-07T11:56:08.977Z,30.06
2022-08-07T11:56:28.129Z,29.95
2022-08-07T11:57:57.677Z,29.65
2022-08-07T11:58:33.429Z,29.86
2022-08-07T12:00:10.576Z,29.86
2022-08-07T12:00:28.332Z,29.33
2022-08-07T12:01:24.625Z,28.99
2022-08-07T12:02:30.211Z,27.30
2022-08-07T12:03:44.666Z,26.48
2022-08-07T12:04:25.435Z,26.26
2022-08-07T12:05:28.536Z,26.36
2022-08-07T12:06:36.923Z,26.26
2022-08-07T12:07:27.193Z,26.14
2022-08-07T12:08:26.110Z,25.73
2022-08-07T12:09:25.376Z,25.12
2022-08-07T12:10:24.381Z,24.41
2022-08-07T12:11:24.359Z,24.31
2022-08-07T12:12:25.349Z,24.31
2022-08-07T12:13:35.688Z,24.43
2022-08-07T12:14:25.327Z,24.44
2022-08-07T12:15:57.963Z,24.43
2022-08-07T12:16:28.932Z,24.13
2022-08-07T12:17:25.295Z,24.41
2022-08-07T12:18:29.909Z,24.42
2022-08-07T12:19:35.613Z,24.60
2022-08-07T12:20:30.658Z,23.81
2022-08-07T12:22:35.917Z,23.82
2022-08-07T12:22:39.260Z,24.01
2022-08-07T12:24:04.845Z,23.10
2022-08-07T12:24:38.081Z,23.58
2022-08-07T12:26:02.977Z,23.87
2022-08-07T12:26:29.771Z,22.77
2022-08-07T12:27:27.964Z,22.56
2022-08-07T12:28:31.332Z,22.76
2022-08-07T12:29:37.862Z,23.80
2022-08-07T12:30:30.192Z,23.70
2022-08-07T12:31:24.147Z,22.41
2022-08-07T12:32:24.148Z,23.21
2022-08-07T12:33:30.860Z,23.50
2022-08-07T12:34:25.892Z,23.20
2022-08-07T12:35:24.194Z,23.37
2022-08-07T12:36:32.626Z,22.96
2022-08-07T12:37:28.459Z,22.97
2022-08-07T12:38:36.966Z,22.97
2022-08-07T12:39:42.682Z,22.96
2022-08-07T12:40:46.356Z,22.56
2022-08-07T12:41:49.224Z,22.55
2022-08-07T12:42:27.621Z,22.35
2022-08-07T12:44:02.762Z,22.56
2022-08-07T12:44:25.018Z,22.78
2022-08-07T12:45:24.014Z,22.88
2022-08-07T12:46:26.256Z,23.41
2022-08-07T12:47:26.962Z,24.42
2022-08-07T12:48:27.758Z,24.24
2022-08-07T12:49:39.523Z,24.76
2022-08-07T12:50:38.552Z,25.76
2022-08-07T12:51:33.404Z,25.99
2022-08-07T12:52:30.221Z,26.20
2022-08-07T12:53:23.918Z,27.40
2022-08-07T12:54:38.953Z,27.01
2022-08-07T12:55:40.736Z,27.22
2022-08-07T12:56:24.947Z,27.31
2022-08-07T12:57:23.878Z,27.22
2022-08-07T12:58:28.054Z,27.31
2022-08-07T12:59:24.883Z,27.91
2022-08-07T13:00:32.956Z,27.22
2022-08-07T13:01:32.025Z,27.14
2022-08-07T13:02:25.939Z,27.25
2022-08-07T13:04:00.559Z,27.55
2022-08-07T13:04:34.650Z,28.42
2022-08-07T13:06:05.021Z,27.55
2022-08-07T13:06:27.551Z,27.65
2022-08-07T13:08:13.899Z,28.14
2022-08-07T13:08:25.833Z,28.44
2022-08-07T13:10:22.067Z,28.24
2022-08-07T13:10:39.376Z,28.44
2022-08-07T13:11:24.787Z,27.65
2022-08-07T13:12:23.783Z,27.94
2022-08-07T13:13:48.698Z,28.44
2022-08-07T13:14:24.697Z,28.05
2022-08-07T13:15:29.517Z,28.25
2022-08-07T13:16:29.731Z,28.75
2022-08-07T13:17:23.783Z,29.14
2022-08-07T13:18:26.262Z,29.34
2022-08-07T13:19:46.279Z,29.34
2022-08-07T13:20:27.876Z,28.94
2022-08-07T13:21:50.153Z,28.45
2022-08-07T13:22:28.133Z,28.35
2022-08-07T13:24:01.021Z,29.14
2022-08-07T13:24:25.871Z,27.76
2022-08-07T13:25:28.886Z,28.27
2022-08-07T13:26:26.430Z,28.66
2022-08-07T13:27:23.557Z,29.16
2022-08-07T13:28:25.209Z,28.35
2022-08-07T13:29:28.548Z,27.77
2022-08-07T13:30:41.012Z,27.77
2022-08-07T13:31:24.507Z,28.17
2022-08-07T13:32:32.219Z,28.76
2022-08-07T13:34:32.034Z,28.86
2022-08-07T13:34:32.872Z,28.65
2022-08-07T13:35:24.462Z,28.96
2022-08-07T13:36:25.905Z,28.75
2022-08-07T13:37:23.928Z,28.86
2022-08-07T13:38:23.661Z,28.85
2022-08-07T13:39:49.191Z,29.14
2022-08-07T13:40:35.529Z,28.06
2022-08-07T13:41:24.414Z,29.14
2022-08-07T13:42:25.012Z,28.94
2022-08-07T13:43:23.376Z,28.75
2022-08-07T13:44:26.140Z,28.85
2022-08-07T13:46:12.414Z,27.94
2022-08-07T13:46:28.798Z,28.93
2022-08-07T13:48:05.454Z,28.25
2022-08-07T13:48:34.130Z,29.24
2022-08-07T13:50:32.842Z,28.55
2022-08-07T13:50:32.911Z,27.96
2022-08-07T13:52:22.467Z,28.06
2022-08-07T13:52:36.185Z,28.35
2022-08-07T13:53:24.269Z,28.07
2022-08-07T13:54:23.966Z,28.75
2022-08-07T13:55:26.487Z,28.75
2022-08-07T13:56:36.000Z,28.94
2022-08-07T13:57:24.406Z,29.14
2022-08-07T13:58:27.642Z,28.75
2022-08-07T13:59:24.197Z,27.86
2022-08-07T14:00:26.115Z,28.85
2022-08-07T14:01:23.176Z,28.06
2022-08-07T14:02:29.696Z,28.06
2022-08-07T14:03:30.078Z,27.36
2022-08-07T14:04:24.191Z,27.66
2022-08-07T14:05:24.215Z,27.36
2022-08-07T14:06:24.735Z,27.76
2022-08-07T14:07:23.652Z,27.55
2022-08-07T14:08:23.145Z,27.65
2022-08-07T14:10:02.488Z,27.06
2022-08-07T14:10:28.151Z,27.45
2022-08-07T14:11:24.064Z,27.35
2022-08-07T14:12:27.624Z,27.35
2022-08-07T14:13:33.394Z,27.17
2022-08-07T14:14:23.061Z,27.47
2022-08-07T14:15:23.913Z,27.47
2022-08-07T14:16:27.194Z,27.36
2022-08-07T14:17:51.476Z,27.18
2022-08-07T14:18:28.527Z,27.58
2022-08-07T14:20:39.811Z,27.38
2022-08-07T14:20:41.938Z,27.97
2022-08-07T14:22:02.345Z,27.97
2022-08-07T14:22:34.424Z,28.55
2022-08-07T14:23:54.656Z,28.35
2022-08-07T14:24:28.939Z,28.25
2022-08-07T14:25:22.934Z,28.44
2022-08-07T14:26:30.461Z,27.75
2022-08-07T14:30:04.955Z,27.25
2022-08-07T14:30:33.179Z,27.35
2022-08-07T14:31:23.866Z,27.15
2022-08-07T14:32:24.943Z,27.55
2022-08-07T14:33:23.600Z,27.15
2022-08-07T14:34:27.200Z,27.07
2022-08-07T14:35:44.778Z,27.17
2022-08-07T14:36:23.838Z,26.96
2022-08-07T14:37:32.916Z,27.86
2022-08-07T14:38:26.721Z,27.17
2022-08-07T14:40:26.653Z,27.66
2022-08-07T14:41:34.114Z,27.56
2022-08-07T14:42:23.718Z,27.65
2022-08-07T14:43:58.779Z,27.55
2022-08-07T14:44:24.302Z,27.55
2022-08-07T14:45:22.734Z,27.55
2022-08-07T14:46:31.187Z,27.45
2022-08-07T14:47:22.669Z,27.26
2022-08-07T14:48:27.347Z,26.86
2022-08-07T14:49:57.150Z,27.47
2022-08-07T14:50:23.630Z,27.26
2022-08-07T14:51:22.623Z,27.56
2022-08-07T14:54:05.817Z,27.65
2022-08-07T14:54:30.876Z,27.66
2022-08-07T14:55:23.578Z,27.07
2022-08-07T14:56:29.846Z,27.26
2022-08-07T14:57:54.412Z,27.48
2022-08-07T14:58:24.828Z,27.66
2022-08-07T15:00:30.665Z,27.36
2022-08-07T15:01:23.515Z,26.66
2022-08-07T15:02:33.111Z,26.56
2022-08-07T15:03:23.535Z,25.98
2022-08-07T15:04:25.116Z,26.17
2022-08-07T15:05:23.667Z,26.36
2022-08-07T15:06:22.480Z,26.17
2022-08-07T15:07:22.446Z,26.17
2022-08-07T15:09:57.691Z,25.77
2022-08-07T15:13:25.290Z,26.17
2022-08-07T15:14:22.432Z,25.89
2022-08-07T15:15:22.788Z,25.38
2022-08-07T15:16:33.541Z,26.08
2022-08-07T15:17:23.335Z,25.38
2022-08-07T15:18:28.418Z,25.57
2022-08-07T15:21:44.394Z,25.67
2022-08-07T15:22:31.451Z,25.87
2022-08-07T15:23:53.548Z,26.07
2022-08-07T15:25:15.511Z,25.97
2022-08-07T15:25:23.246Z,26.17
2022-08-07T15:26:22.409Z,26.36
2022-08-07T15:27:22.297Z,26.17
2022-08-07T15:28:34.520Z,27.45
2022-08-07T15:30:04.693Z,26.67
2022-08-07T15:30:28.214Z,27.06
2022-08-07T15:32:01.161Z,27.26
2022-08-07T15:32:39.731Z,27.15
2022-08-07T15:33:23.156Z,27.45
2022-08-07T15:34:26.088Z,27.15
2022-08-07T15:37:02.456Z,27.15
2022-08-07T15:38:31.110Z,26.26
2022-08-07T15:39:23.142Z,25.97
2022-08-07T15:42:43.289Z,26.07
2022-08-07T15:43:33.187Z,25.38
2022-08-07T15:44:23.464Z,25.38
2022-08-07T15:45:22.026Z,25.49
2022-08-07T15:46:31.505Z,26.18
2022-08-07T15:48:00.120Z,26.18
2022-08-07T15:48:22.989Z,25.89
2022-08-07T15:49:25.475Z,26.48
2022-08-07T15:50:37.986Z,26.18
2022-08-07T15:51:22.959Z,26.38
2022-08-07T15:52:30.022Z,26.38
2022-08-07T15:53:21.937Z,26.38
2022-08-07T15:54:21.960Z,26.38
2022-08-07T15:55:23.243Z,26.38
2022-08-07T15:56:24.086Z,26.08
2022-08-07T15:57:40.250Z,26.08
2022-08-07T15:58:22.879Z,25.78
2022-08-07T15:59:40.104Z,25.68
2022-08-07T16:00:33.454Z,26.59
2022-08-07T16:01:22.896Z,26.57
2022-08-07T16:02:27.346Z,25.60
2022-08-07T16:03:46.074Z,25.60
2022-08-07T16:04:22.813Z,25.60
2022-08-07T16:05:23.153Z,26.59
2022-08-07T16:06:22.796Z,26.59
2022-08-07T16:08:31.521Z,26.39
2022-08-07T16:08:32.989Z,26.59
2022-08-07T16:09:23.110Z,25.49
2022-08-07T16:10:21.780Z,25.89
2022-08-07T16:11:27.373Z,25.59
2022-08-07T16:12:28.631Z,25.78
2022-08-07T16:13:58.064Z,25.70
2022-08-07T16:14:27.729Z,26.28
2022-08-07T16:15:56.375Z,25.78
2022-08-07T16:16:48.320Z,26.08
2022-08-07T16:18:02.888Z,26.38
2022-08-07T16:18:49.379Z,26.18
2022-08-07T16:19:43.194Z,26.38
2022-08-07T16:20:33.362Z,26.38
2022-08-07T16:22:01.929Z,26.28
2022-08-07T16:22:33.705Z,27.17
2022-08-07T16:23:53.087Z,26.97
2022-08-07T16:24:34.721Z,27.07
2022-08-07T16:25:53.026Z,27.17
2022-08-07T16:26:31.112Z,27.07
2022-08-07T16:27:22.573Z,27.86
2022-08-07T16:30:05.664Z,27.26
2022-08-07T16:30:11.264Z,27.47
2022-08-07T16:30:30.391Z,27.66
2022-08-07T16:31:57.195Z,27.36
2022-08-07T16:32:34.568Z,27.56
2022-08-07T16:34:02.136Z,27.26
2022-08-07T16:34:23.867Z,27.36
2022-08-07T16:35:58.370Z,27.26
2022-08-07T16:36:31.226Z,27.36
2022-08-07T16:38:05.884Z,27.67
2022-08-07T16:38:44.107Z,27.47
2022-08-07T16:39:40.567Z,27.76
2022-08-07T16:40:23.057Z,27.47
2022-08-07T16:41:22.420Z,27.96
2022-08-07T16:42:21.432Z,27.56
2022-08-07T16:43:22.460Z,28.06
2022-08-07T16:44:53.687Z,27.36
2022-08-07T16:46:47.136Z,27.36
2022-08-07T16:47:09.545Z,27.66
2022-08-07T16:47:49.680Z,27.36
2022-08-07T16:48:28.591Z,27.66
2022-08-07T16:50:27.340Z,27.66
2022-08-07T16:50:35.887Z,27.56
2022-08-07T16:51:57.715Z,27.76
2022-08-07T16:52:51.051Z,27.28
2022-08-07T16:54:01.836Z,27.26
2022-08-07T16:54:22.617Z,27.56
2022-08-07T16:55:22.465Z,27.38
2022-08-07T16:56:21.259Z,27.67
2022-08-07T16:57:28.794Z,27.58
2022-08-07T16:58:33.684Z,27.48
2022-08-07T16:59:22.655Z,27.66
2022-08-07T17:00:29.765Z,27.36
2022-08-07T17:01:22.268Z,27.97
2022-08-07T17:02:53.691Z,27.18
2022-08-07T17:03:57.947Z,27.58
2022-08-07T17:04:24.634Z,27.36
2022-08-07T17:06:19.876Z,27.48
2022-08-07T17:06:31.381Z,27.47
2022-08-07T17:07:28.400Z,27.87